sensor_id;sensor_type;location;lat;lon;timestamp;pressure;altitude;pressure_sealevel;temperature;humidity
46722;BME280;32455;43.430;23.136;2022-12-29T00:01:41;99157.84;;;-0.21;100.00
46722;BME280;32455;43.430;23.136;2022-12-29T00:04:26;99143.09;;;-0.24;100.00
46722;BME280;32455;43.430;23.136;2022-12-29T00:07:12;99151.03;;;-0.24;100.00
46722;BME280;32455;43.430;23.136;2022-12-29T00:09:57;99140.84;;;-0.29;100.00
46722;BME280;32455;43.430;23.136;2022-12-29T00:12:43;99126.69;;;-0.28;100.00
46722;BME280;32455;43.430;23.136;2022-12-29T00:15:47;99152.28;;;0.33;100.00
46722;BME280;32455;43.430;23.136;2022-12-29T00:18:32;99146.88;;;0.35;100.00
46722;BME280;32455;43.430;23.136;2022-12-29T00:21:20;99142.88;;;0.10;100.00
46722;BME280;32455;43.430;23.136;2022-12-29T00:24:24;99126.84;;;0.42;100.00
46722;BME280;32455;43.430;23.136;2022-12-29T00:27:29;99153.19;;;0.53;100.00
46722;BME280;32455;43.430;23.136;2022-12-29T00:30:35;99151.63;;;0.50;100.00
46722;BME280;32455;43.430;23.136;2022-12-29T00:33:40;99141.19;;;0.39;100.00
46722;BME280;32455;43.430;23.136;2022-12-29T00:36:44;99151.38;;;0.63;100.00
46722;BME280;32455;43.430;23.136;2022-12-29T00:39:30;99138.81;;;0.46;100.00
46722;BME280;32455;43.430;23.136;2022-12-29T00:42:34;99157.19;;;0.17;100.00
46722;BME280;32455;43.430;23.136;2022-12-29T00:45:41;99155.31;;;-0.02;100.00
46722;BME280;32455;43.430;23.136;2022-12-29T00:48:27;99167.19;;;-0.17;100.00
46722;BME280;32455;43.430;23.136;2022-12-29T00:51:31;99165.00;;;-0.12;100.00
46722;BME280;32455;43.430;23.136;2022-12-29T00:54:17;99165.13;;;-0.14;100.00
46722;BME280;32455;43.430;23.136;2022-12-29T00:57:04;99163.50;;;-0.26;100.00
46722;BME280;32455;43.430;23.136;2022-12-29T00:59:50;99160.03;;;-0.27;100.00
46722;BME280;32455;43.430;23.136;2022-12-29T01:02:35;99131.63;;;-0.13;100.00
46722;BME280;32455;43.430;23.136;2022-12-29T01:05:20;99155.72;;;-0.07;100.00
46722;BME280;32455;43.430;23.136;2022-12-29T01:08:05;99162.38;;;-0.33;100.00
46722;BME280;32455;43.430;23.136;2022-12-29T01:11:05;99143.94;;;-0.65;100.00
46722;BME280;32455;43.430;23.136;2022-12-29T01:13:52;99138.63;;;-0.86;100.00
46722;BME280;32455;43.430;23.136;2022-12-29T01:16:37;99166.19;;;-0.79;100.00
46722;BME280;32455;43.430;23.136;2022-12-29T01:19:22;99150.00;;;-0.86;100.00
46722;BME280;32455;43.430;23.136;2022-12-29T01:22:08;99122.13;;;-0.99;100.00
46722;BME280;32455;43.430;23.136;2022-12-29T01:24:53;99141.31;;;-0.97;100.00
46722;BME280;32455;43.430;23.136;2022-12-29T01:27:39;99135.78;;;-0.94;100.00
46722;BME280;32455;43.430;23.136;2022-12-29T01:30:24;99126.16;;;-0.84;100.00
46722;BME280;32455;43.430;23.136;2022-12-29T01:33:09;99140.28;;;-0.53;100.00
46722;BME280;32455;43.430;23.136;2022-12-29T01:35:55;99130.59;;;-0.85;100.00
46722;BME280;32455;43.430;23.136;2022-12-29T01:38:41;99149.59;;;-0.70;100.00
46722;BME280;32455;43.430;23.136;2022-12-29T01:41:27;99141.47;;;-0.78;100.00
46722;BME280;32455;43.430;23.136;2022-12-29T01:47:58;99130.59;;;-1.17;100.00
46722;BME280;32455;43.430;23.136;2022-12-29T01:50:49;99136.69;;;-1.16;100.00
46722;BME280;32455;43.430;23.136;2022-12-29T01:53:36;99130.34;;;-1.14;100.00
46722;BME280;32455;43.430;23.136;2022-12-29T01:56:22;99118.16;;;-1.26;100.00
46722;BME280;32455;43.430;23.136;2022-12-29T01:59:14;99122.69;;;-1.17;100.00
46722;BME280;32455;43.430;23.136;2022-12-29T02:02:01;99124.84;;;-1.22;100.00
46722;BME280;32455;43.430;23.136;2022-12-29T02:04:47;99103.47;;;-1.40;100.00
46722;BME280;32455;43.430;23.136;2022-12-29T02:07:33;99105.50;;;-1.43;100.00
46722;BME280;32455;43.430;23.136;2022-12-29T02:10:23;99107.59;;;-1.26;100.00
46722;BME280;32455;43.430;23.136;2022-12-29T02:13:09;99107.22;;;-1.21;100.00
46722;BME280;32455;43.430;23.136;2022-12-29T02:32:37;99094.13;;;-1.12;100.00
46722;BME280;32455;43.430;23.136;2022-12-29T02:35:32;99099.09;;;-1.18;100.00
46722;BME280;32455;43.430;23.136;2022-12-29T02:41:32;99082.06;;;-1.58;100.00
46722;BME280;32455;43.430;23.136;2022-12-29T02:50:22;99084.66;;;-1.46;100.00
46722;BME280;32455;43.430;23.136;2022-12-29T02:53:15;99068.47;;;-1.42;100.00
46722;BME280;32455;43.430;23.136;2022-12-29T02:56:22;99079.44;;;-1.26;100.00
46722;BME280;32455;43.430;23.136;2022-12-29T02:59:08;99055.78;;;-1.48;100.00
46722;BME280;32455;43.430;23.136;2022-12-29T03:02:27;99052.25;;;-1.69;100.00
46722;BME280;32455;43.430;23.136;2022-12-29T03:11:53;99045.50;;;-1.51;100.00
46722;BME280;32455;43.430;23.136;2022-12-29T03:15:04;99070.53;;;-1.45;100.00
46722;BME280;32455;43.430;23.136;2022-12-29T03:18:24;99081.78;;;-1.43;100.00
46722;BME280;32455;43.430;23.136;2022-12-29T03:21:12;99083.72;;;-1.13;100.00
46722;BME280;32455;43.430;23.136;2022-12-29T03:23:59;99095.91;;;-1.01;100.00
46722;BME280;32455;43.430;23.136;2022-12-29T03:26:46;99084.50;;;-1.34;100.00
46722;BME280;32455;43.430;23.136;2022-12-29T03:29:36;99066.19;;;-1.46;100.00
46722;BME280;32455;43.430;23.136;2022-12-29T03:32:27;99098.81;;;-1.59;100.00
46722;BME280;32455;43.430;23.136;2022-12-29T03:35:17;99089.94;;;-1.46;100.00
46722;BME280;32455;43.430;23.136;2022-12-29T03:38:31;99091.19;;;-1.30;100.00
46722;BME280;32455;43.430;23.136;2022-12-29T03:41:23;99090.44;;;-1.64;100.00
46722;BME280;32455;43.430;23.136;2022-12-29T03:44:12;99079.13;;;-1.87;100.00
46722;BME280;32455;43.430;23.136;2022-12-29T03:46:58;99076.06;;;-1.60;100.00
46722;BME280;32455;43.430;23.136;2022-12-29T03:49:44;99099.19;;;-1.52;100.00
46722;BME280;32455;43.430;23.136;2022-12-29T03:52:29;99101.00;;;-1.64;100.00
46722;BME280;32455;43.430;23.136;2022-12-29T03:55:14;99092.63;;;-1.69;100.00
46722;BME280;32455;43.430;23.136;2022-12-29T03:57:59;99103.88;;;-1.67;100.00
46722;BME280;32455;43.430;23.136;2022-12-29T04:00:44;99100.59;;;-1.37;100.00
46722;BME280;32455;43.430;23.136;2022-12-29T04:03:29;99093.34;;;-1.67;100.00
46722;BME280;32455;43.430;23.136;2022-12-29T04:06:14;99090.13;;;-1.82;100.00
46722;BME280;32455;43.430;23.136;2022-12-29T04:08:59;99094.41;;;-1.58;100.00
46722;BME280;32455;43.430;23.136;2022-12-29T04:11:45;99091.41;;;-1.54;100.00
46722;BME280;32455;43.430;23.136;2022-12-29T04:14:31;99078.59;;;-1.69;100.00
46722;BME280;32455;43.430;23.136;2022-12-29T04:17:16;99081.47;;;-1.61;100.00
46722;BME280;32455;43.430;23.136;2022-12-29T04:20:02;99081.84;;;-1.66;100.00
46722;BME280;32455;43.430;23.136;2022-12-29T04:23:06;99077.91;;;-1.83;100.00
46722;BME280;32455;43.430;23.136;2022-12-29T04:25:52;99084.47;;;-1.66;100.00
46722;BME280;32455;43.430;23.136;2022-12-29T04:28:38;99102.31;;;-1.58;100.00
46722;BME280;32455;43.430;23.136;2022-12-29T04:31:24;99095.75;;;-1.75;100.00
46722;BME280;32455;43.430;23.136;2022-12-29T04:34:09;99073.84;;;-1.87;100.00
46722;BME280;32455;43.430;23.136;2022-12-29T04:36:54;99077.44;;;-1.99;100.00
46722;BME280;32455;43.430;23.136;2022-12-29T04:39:39;99089.78;;;-1.88;100.00
46722;BME280;32455;43.430;23.136;2022-12-29T04:42:25;99090.13;;;-1.82;100.00
46722;BME280;32455;43.430;23.136;2022-12-29T04:45:10;99103.16;;;-1.58;100.00
46722;BME280;32455;43.430;23.136;2022-12-29T04:47:56;99118.97;;;-1.80;100.00
46722;BME280;32455;43.430;23.136;2022-12-29T04:50:42;99116.22;;;-1.79;100.00
46722;BME280;32455;43.430;23.136;2022-12-29T04:53:27;99108.19;;;-1.66;100.00
46722;BME280;32455;43.430;23.136;2022-12-29T04:56:13;99128.56;;;-1.79;100.00
46722;BME280;32455;43.430;23.136;2022-12-29T04:58:59;99127.94;;;-1.71;100.00
46722;BME280;32455;43.430;23.136;2022-12-29T05:01:44;99117.28;;;-1.81;100.00
46722;BME280;32455;43.430;23.136;2022-12-29T05:04:30;99132.16;;;-2.14;100.00
46722;BME280;32455;43.430;23.136;2022-12-29T05:07:15;99146.50;;;-2.07;100.00
46722;BME280;32455;43.430;23.136;2022-12-29T05:10:00;99146.75;;;-1.87;100.00
46722;BME280;32455;43.430;23.136;2022-12-29T05:12:46;99129.06;;;-1.96;100.00
46722;BME280;32455;43.430;23.136;2022-12-29T05:15:31;99130.94;;;-1.98;100.00
46722;BME280;32455;43.430;23.136;2022-12-29T05:18:17;99152.00;;;-1.76;100.00
46722;BME280;32455;43.430;23.136;2022-12-29T05:21:02;99144.75;;;-1.84;100.00
46722;BME280;32455;43.430;23.136;2022-12-29T05:23:48;99136.34;;;-2.00;100.00
46722;BME280;32455;43.430;23.136;2022-12-29T05:26:34;99134.56;;;-1.88;100.00
46722;BME280;32455;43.430;23.136;2022-12-29T05:29:19;99132.16;;;-1.91;100.00
46722;BME280;32455;43.430;23.136;2022-12-29T05:32:04;99138.50;;;-2.05;100.00
46722;BME280;32455;43.430;23.136;2022-12-29T05:34:50;99133.34;;;-1.95;100.00
46722;BME280;32455;43.430;23.136;2022-12-29T05:37:35;99142.78;;;-1.93;100.00
46722;BME280;32455;43.430;23.136;2022-12-29T05:40:21;99142.44;;;-1.99;100.00
46722;BME280;32455;43.430;23.136;2022-12-29T05:43:05;99131.78;;;-2.20;100.00
46722;BME280;32455;43.430;23.136;2022-12-29T05:45:50;99147.44;;;-2.19;100.00
46722;BME280;32455;43.430;23.136;2022-12-29T05:48:36;99142.66;;;-2.25;100.00
46722;BME280;32455;43.430;23.136;2022-12-29T05:51:21;99150.22;;;-2.20;100.00
46722;BME280;32455;43.430;23.136;2022-12-29T05:54:06;99150.47;;;-1.90;100.00
46722;BME280;32455;43.430;23.136;2022-12-29T05:56:51;99155.38;;;-2.08;100.00
46722;BME280;32455;43.430;23.136;2022-12-29T05:59:37;99152.97;;;-1.77;100.00
46722;BME280;32455;43.430;23.136;2022-12-29T06:02:22;99159.31;;;-2.02;100.00
46722;BME280;32455;43.430;23.136;2022-12-29T06:05:07;99159.47;;;-1.92;100.00
46722;BME280;32455;43.430;23.136;2022-12-29T06:07:53;99151.31;;;-2.00;100.00
46722;BME280;32455;43.430;23.136;2022-12-29T06:10:38;99159.09;;;-1.99;100.00
46722;BME280;32455;43.430;23.136;2022-12-29T06:13:24;99160.53;;;-1.84;100.00
46722;BME280;32455;43.430;23.136;2022-12-29T06:16:09;99159.06;;;-2.21;100.00
46722;BME280;32455;43.430;23.136;2022-12-29T06:18:54;99166.47;;;-2.15;100.00
46722;BME280;32455;43.430;23.136;2022-12-29T06:21:40;99170.34;;;-2.08;100.00
46722;BME280;32455;43.430;23.136;2022-12-29T06:24:25;99149.28;;;-1.97;100.00
46722;BME280;32455;43.430;23.136;2022-12-29T06:27:10;99167.34;;;-1.81;100.00
46722;BME280;32455;43.430;23.136;2022-12-29T06:29:56;99173.09;;;-1.65;100.00
46722;BME280;32455;43.430;23.136;2022-12-29T06:32:42;99165.31;;;-1.66;100.00
46722;BME280;32455;43.430;23.136;2022-12-29T06:35:27;99173.22;;;-1.78;100.00
46722;BME280;32455;43.430;23.136;2022-12-29T06:38:13;99166.66;;;-1.83;100.00
46722;BME280;32455;43.430;23.136;2022-12-29T06:40:58;99170.09;;;-1.71;100.00
46722;BME280;32455;43.430;23.136;2022-12-29T06:43:43;99178.47;;;-1.89;100.00
46722;BME280;32455;43.430;23.136;2022-12-29T06:46:28;99180.28;;;-1.78;100.00
46722;BME280;32455;43.430;23.136;2022-12-29T06:49:14;99180.78;;;-1.62;100.00
46722;BME280;32455;43.430;23.136;2022-12-29T06:51:59;99169.00;;;-1.35;100.00
46722;BME280;32455;43.430;23.136;2022-12-29T06:54:45;99164.09;;;-1.40;100.00
46722;BME280;32455;43.430;23.136;2022-12-29T06:57:30;99180.88;;;-1.52;100.00
46722;BME280;32455;43.430;23.136;2022-12-29T07:00:16;99178.47;;;-1.55;100.00
46722;BME280;32455;43.430;23.136;2022-12-29T07:03:02;99174.75;;;-1.64;100.00
46722;BME280;32455;43.430;23.136;2022-12-29T07:05:47;99170.56;;;-1.55;100.00
46722;BME280;32455;43.430;23.136;2022-12-29T07:08:32;99177.53;;;-1.77;100.00
46722;BME280;32455;43.430;23.136;2022-12-29T07:11:18;99166.38;;;-1.80;100.00
46722;BME280;32455;43.430;23.136;2022-12-29T07:14:03;99165.91;;;-1.74;100.00
46722;BME280;32455;43.430;23.136;2022-12-29T07:16:48;99166.72;;;-1.40;100.00
46722;BME280;32455;43.430;23.136;2022-12-29T07:19:33;99171.53;;;-1.45;100.00
46722;BME280;32455;43.430;23.136;2022-12-29T07:22:18;99165.84;;;-1.18;100.00
46722;BME280;32455;43.430;23.136;2022-12-29T07:25:04;99165.69;;;-1.16;100.00
46722;BME280;32455;43.430;23.136;2022-12-29T07:27:49;99170.75;;;-1.24;100.00
46722;BME280;32455;43.430;23.136;2022-12-29T07:30:36;99171.78;;;-1.05;100.00
46722;BME280;32455;43.430;23.136;2022-12-29T07:33:22;99171.41;;;-1.00;100.00
46722;BME280;32455;43.430;23.136;2022-12-29T07:36:08;99182.59;;;-1.08;100.00
46722;BME280;32455;43.430;23.136;2022-12-29T07:38:53;99172.69;;;-1.15;100.00
46722;BME280;32455;43.430;23.136;2022-12-29T07:41:38;99177.03;;;-0.93;100.00
46722;BME280;32455;43.430;23.136;2022-12-29T07:44:24;99168.03;;;-0.91;100.00
46722;BME280;32455;43.430;23.136;2022-12-29T07:47:09;99183.28;;;-0.62;100.00
46722;BME280;32455;43.430;23.136;2022-12-29T07:49:55;99183.59;;;-0.35;100.00
46722;BME280;32455;43.430;23.136;2022-12-29T07:52:40;99181.50;;;-0.20;100.00
46722;BME280;32455;43.430;23.136;2022-12-29T07:55:26;99177.00;;;0.22;100.00
46722;BME280;32455;43.430;23.136;2022-12-29T07:58:11;99177.72;;;0.34;100.00
46722;BME280;32455;43.430;23.136;2022-12-29T08:00:57;99175.66;;;0.38;100.00
46722;BME280;32455;43.430;23.136;2022-12-29T08:03:42;99172.03;;;0.69;100.00
46722;BME280;32455;43.430;23.136;2022-12-29T08:06:27;99174.75;;;1.08;100.00
46722;BME280;32455;43.430;23.136;2022-12-29T08:09:13;99169.31;;;1.19;100.00
46722;BME280;32455;43.430;23.136;2022-12-29T08:11:58;99164.88;;;1.30;100.00
46722;BME280;32455;43.430;23.136;2022-12-29T08:14:44;99161.38;;;1.39;100.00
46722;BME280;32455;43.430;23.136;2022-12-29T08:17:29;99157.88;;;1.58;100.00
46722;BME280;32455;43.430;23.136;2022-12-29T08:20:14;99179.31;;;1.74;100.00
46722;BME280;32455;43.430;23.136;2022-12-29T08:23:00;99171.34;;;1.93;100.00
46722;BME280;32455;43.430;23.136;2022-12-29T08:25:45;99156.53;;;2.00;100.00
46722;BME280;32455;43.430;23.136;2022-12-29T08:28:32;99175.53;;;2.33;100.00
46722;BME280;32455;43.430;23.136;2022-12-29T08:31:18;99153.34;;;2.34;100.00
46722;BME280;32455;43.430;23.136;2022-12-29T08:34:03;99166.22;;;2.57;100.00
46722;BME280;32455;43.430;23.136;2022-12-29T08:36:49;99184.00;;;2.74;100.00
46722;BME280;32455;43.430;23.136;2022-12-29T08:39:34;99172.97;;;2.79;100.00
46722;BME280;32455;43.430;23.136;2022-12-29T08:42:20;99160.09;;;2.84;100.00
46722;BME280;32455;43.430;23.136;2022-12-29T08:45:06;99162.88;;;2.82;100.00
46722;BME280;32455;43.430;23.136;2022-12-29T08:47:53;99153.94;;;2.83;100.00
46722;BME280;32455;43.430;23.136;2022-12-29T08:50:38;99178.91;;;3.08;100.00
46722;BME280;32455;43.430;23.136;2022-12-29T08:53:24;99166.63;;;3.07;100.00
46722;BME280;32455;43.430;23.136;2022-12-29T08:56:10;99158.75;;;3.15;100.00
46722;BME280;32455;43.430;23.136;2022-12-29T08:58:56;99165.50;;;3.28;100.00
46722;BME280;32455;43.430;23.136;2022-12-29T09:01:40;99171.28;;;3.41;100.00
46722;BME280;32455;43.430;23.136;2022-12-29T09:04:26;99168.06;;;3.55;100.00
46722;BME280;32455;43.430;23.136;2022-12-29T09:07:12;99163.84;;;3.44;100.00
46722;BME280;32455;43.430;23.136;2022-12-29T09:09:57;99151.38;;;3.45;100.00
46722;BME280;32455;43.430;23.136;2022-12-29T09:12:42;99151.44;;;3.53;100.00
46722;BME280;32455;43.430;23.136;2022-12-29T09:15:28;99151.63;;;3.51;100.00
46722;BME280;32455;43.430;23.136;2022-12-29T09:18:13;99150.06;;;3.67;100.00
46722;BME280;32455;43.430;23.136;2022-12-29T09:21:04;99155.03;;;3.88;100.00
46722;BME280;32455;43.430;23.136;2022-12-29T09:23:49;99149.00;;;4.04;100.00
46722;BME280;32455;43.430;23.136;2022-12-29T09:26:35;99143.56;;;4.13;100.00
46722;BME280;32455;43.430;23.136;2022-12-29T09:29:20;99122.63;;;4.18;100.00
46722;BME280;32455;43.430;23.136;2022-12-29T09:32:06;99142.47;;;4.32;100.00
46722;BME280;32455;43.430;23.136;2022-12-29T09:34:52;99122.38;;;4.30;100.00
46722;BME280;32455;43.430;23.136;2022-12-29T09:37:37;99136.84;;;4.35;100.00
46722;BME280;32455;43.430;23.136;2022-12-29T09:40:28;99129.91;;;4.42;100.00
46722;BME280;32455;43.430;23.136;2022-12-29T09:46:31;99134.97;;;4.62;100.00
46722;BME280;32455;43.430;23.136;2022-12-29T09:52:45;99110.41;;;4.76;100.00
46722;BME280;32455;43.430;23.136;2022-12-29T09:55:41;99095.72;;;4.64;100.00
46722;BME280;32455;43.430;23.136;2022-12-29T09:58:50;99108.88;;;4.65;100.00
46722;BME280;32455;43.430;23.136;2022-12-29T10:01:46;99103.59;;;4.82;100.00
46722;BME280;32455;43.430;23.136;2022-12-29T10:04:36;99088.63;;;4.81;100.00
46722;BME280;32455;43.430;23.136;2022-12-29T10:10:33;99092.97;;;4.90;100.00
46722;BME280;32455;43.430;23.136;2022-12-29T10:23:33;99081.34;;;5.23;99.40
46722;BME280;32455;43.430;23.136;2022-12-29T10:26:26;99075.34;;;5.30;100.00
46722;BME280;32455;43.430;23.136;2022-12-29T10:29:18;99068.03;;;5.40;99.42
46722;BME280;32455;43.430;23.136;2022-12-29T10:32:14;99065.31;;;5.56;97.41
46722;BME280;32455;43.430;23.136;2022-12-29T10:35:47;99071.16;;;5.60;97.48
46722;BME280;32455;43.430;23.136;2022-12-29T10:38:35;99073.66;;;5.61;97.70
46722;BME280;32455;43.430;23.136;2022-12-29T10:41:33;99063.47;;;5.73;97.23
46722;BME280;32455;43.430;23.136;2022-12-29T10:44:23;99047.63;;;5.80;96.05
46722;BME280;32455;43.430;23.136;2022-12-29T10:47:23;99044.63;;;5.83;95.82
46722;BME280;32455;43.430;23.136;2022-12-29T10:50:11;99044.25;;;5.86;95.59
46722;BME280;32455;43.430;23.136;2022-12-29T10:53:02;99051.75;;;5.98;94.94
46722;BME280;32455;43.430;23.136;2022-12-29T10:55:50;99037.94;;;5.95;96.14
46722;BME280;32455;43.430;23.136;2022-12-29T10:58:36;99039.59;;;6.04;95.54
46722;BME280;32455;43.430;23.136;2022-12-29T11:01:27;99046.91;;;6.10;94.80
46722;BME280;32455;43.430;23.136;2022-12-29T11:07:21;99011.38;;;6.10;93.11
46722;BME280;32455;43.430;23.136;2022-12-29T11:10:19;99012.19;;;6.18;93.20
46722;BME280;32455;43.430;23.136;2022-12-29T11:13:15;99017.41;;;6.43;90.70
46722;BME280;32455;43.430;23.136;2022-12-29T11:16:01;99010.91;;;6.37;90.83
46722;BME280;32455;43.430;23.136;2022-12-29T11:18:48;99016.16;;;6.53;90.46
46722;BME280;32455;43.430;23.136;2022-12-29T11:21:38;98998.19;;;6.47;90.06
46722;BME280;32455;43.430;23.136;2022-12-29T11:24:28;99020.38;;;6.71;88.71
46722;BME280;32455;43.430;23.136;2022-12-29T11:27:22;99015.19;;;6.77;87.79
46722;BME280;32455;43.430;23.136;2022-12-29T11:30:26;98992.50;;;6.73;88.59
46722;BME280;32455;43.430;23.136;2022-12-29T11:33:12;99002.81;;;6.76;88.00
46722;BME280;32455;43.430;23.136;2022-12-29T11:38:54;98997.31;;;6.78;90.75
46722;BME280;32455;43.430;23.136;2022-12-29T11:41:40;98997.34;;;6.93;89.58
46722;BME280;32455;43.430;23.136;2022-12-29T11:44:26;98998.44;;;7.07;89.19
46722;BME280;32455;43.430;23.136;2022-12-29T11:47:26;98989.53;;;6.91;89.92
46722;BME280;32455;43.430;23.136;2022-12-29T11:50:21;98982.88;;;6.87;89.92
46722;BME280;32455;43.430;23.136;2022-12-29T11:55:53;98991.94;;;7.01;90.17
46722;BME280;32455;43.430;23.136;2022-12-29T11:58:39;98994.47;;;7.02;89.93
46722;BME280;32455;43.430;23.136;2022-12-29T12:01:35;98991.81;;;7.17;89.06
46722;BME280;32455;43.430;23.136;2022-12-29T12:04:23;98986.34;;;7.11;88.56
46722;BME280;32455;43.430;23.136;2022-12-29T12:07:17;99001.25;;;7.28;88.72
46722;BME280;32455;43.430;23.136;2022-12-29T12:10:10;98996.75;;;7.28;89.09
46722;BME280;32455;43.430;23.136;2022-12-29T12:13:30;98991.41;;;7.28;88.22
46722;BME280;32455;43.430;23.136;2022-12-29T12:16:22;98976.41;;;7.19;88.55
46722;BME280;32455;43.430;23.136;2022-12-29T12:19:24;98978.84;;;7.29;88.45
46722;BME280;32455;43.430;23.136;2022-12-29T12:25:30;98976.47;;;7.34;88.25
46722;BME280;32455;43.430;23.136;2022-12-29T12:29:04;98983.38;;;7.43;89.26
46722;BME280;32455;43.430;23.136;2022-12-29T12:31:56;98961.59;;;7.32;89.57
46722;BME280;32455;43.430;23.136;2022-12-29T12:34:44;98970.38;;;7.40;88.12
46722;BME280;32455;43.430;23.136;2022-12-29T12:40:44;98963.47;;;7.46;89.04
46722;BME280;32455;43.430;23.136;2022-12-29T12:43:49;98970.75;;;7.52;87.64
46722;BME280;32455;43.430;23.136;2022-12-29T13:09:46;98950.69;;;7.03;89.29
